Time;durP1;ratioP1;P1;durP2;ratioP2;P2;SDS_P1;SDS_P2;PMS_P1;PMS_P2;Temp;Humidity;BMP_temperature;BMP_pressure;BME280_temperature;BME280_humidity;BME280_pressure;Samples;Min_cycle;Max_cycle;Signal;HPM_P1;HPM_P2
2023/01/11 00:01:31;;;;;;;14.23;9.85;;;;;;;;;;5058091;28;20438;-81
2023/01/11 00:03:57;;;;;;;11.93;9.43;;;;;;;;;;5071772;28;20415;-81
2023/01/11 00:06:24;;;;;;;11.05;9.27;;;;;;;;;;5090158;28;20402;-80
2023/01/11 00:08:50;;;;;;;12.13;9.77;;;;;;;;;;5043171;28;20420;-80
2023/01/11 00:11:16;;;;;;;11.35;8.82;;;;;;;;;;5087588;28;20402;-80
2023/01/11 00:13:46;;;;;;;12.00;9.35;;;9.40;99.90;;;;;;5090015;28;20413;-81
2023/01/11 00:16:12;;;;;;;11.05;8.52;;;;;;;;;;5091355;28;20778;-80
2023/01/11 00:18:39;;;;;;;11.00;8.57;;;;;;;;;;5090921;28;20416;-80
2023/01/11 00:21:06;;;;;;;10.82;9.13;;;;;;;;;;5074074;28;20413;-79
2023/01/11 00:23:33;;;;;;;9.77;8.52;;;9.60;99.90;;;;;;5074632;28;20741;-80
2023/01/11 00:26:01;;;;;;;10.75;8.45;;;;;;;;;;5072404;28;20500;-80
2023/01/11 00:28:27;;;;;;;11.63;8.77;;;;;;;;;;5085158;28;20467;-80
2023/01/11 00:30:54;;;;;;;10.07;8.23;;;;;;;;;;5088884;28;20422;-80
2023/01/11 00:33:20;;;;;;;11.35;9.02;;;;;;;;;;5074407;28;20413;-80
2023/01/11 00:35:46;;;;;;;10.40;8.32;;;;;;;;;;5074318;28;20961;-81
2023/01/11 00:38:42;;;;;;;11.10;8.65;;;;;;;;;;5065921;28;20749;-80
2023/01/11 00:47:55;;;;;;;10.10;8.43;;;;;;;;;;5079173;28;20463;-81
2023/01/11 00:49:13;;;;;;;10.33;8.07;;;;;;;;;;5089094;28;20471;-81
2023/01/11 00:51:39;;;;;;;10.65;8.63;;;;;;;;;;5071735;28;20410;-81
2023/01/11 00:54:05;;;;;;;10.68;8.27;;;;;;;;;;5072010;28;20917;-80
2023/01/11 00:56:31;;;;;;;10.33;8.80;;;;;;;;;;5090288;28;20465;-81
2023/01/11 00:58:57;;;;;;;10.70;8.70;;;;;;;;;;5089619;28;20925;-81
2023/01/11 01:01:24;;;;;;;12.20;8.77;;;;;;;;;;5052018;28;20911;-81
2023/01/11 01:03:50;;;;;;;11.00;8.70;;;;;;;;;;5080391;28;20423;-81
2023/01/11 01:06:16;;;;;;;9.55;8.10;;;;;;;;;;5086915;28;20420;-80
2023/01/11 01:08:42;;;;;;;10.23;7.90;;;;;;;;;;5087314;28;20474;-80
2023/01/11 01:11:08;;;;;;;11.68;8.82;;;;;;;;;;5064628;28;20428;-79
2023/01/11 01:16:18;;;;;;;9.47;7.70;;;;;;;;;;5085186;28;20567;-80
2023/01/11 01:18:45;;;;;;;9.30;7.55;;;;;;;;;;5087099;28;20418;-80
2023/01/11 01:21:11;;;;;;;9.57;7.60;;;;;;;;;;5079707;28;20406;-81
2023/01/11 01:23:37;;;;;;;10.27;7.30;;;;;;;;;;5071158;28;20523;-81
2023/01/11 01:26:03;;;;;;;10.48;7.40;;;9.80;99.90;;;;;;5069580;28;20437;-81
2023/01/11 01:28:29;;;;;;;11.63;7.93;;;;;;;;;;5081701;28;20413;-80
2023/01/11 01:30:55;;;;;;;9.55;7.18;;;;;;;;;;5060163;28;20417;-81
2023/01/11 01:33:22;;;;;;;9.85;7.10;;;9.90;99.90;;;;;;5076240;28;20442;-81
2023/01/11 01:35:48;;;;;;;10.23;7.60;;;;;;;;;;5086891;28;20433;-80
2023/01/11 01:38:14;;;;;;;9.30;6.82;;;;;;;;;;5090768;28;20925;-80
2023/01/11 01:40:45;;;;;;;9.67;7.53;;;;;;;;;;5090627;28;20418;-80
2023/01/11 01:43:12;;;;;;;9.52;7.13;;;;;;;;;;5064120;28;20415;-80
2023/01/11 01:45:40;;;;;;;9.68;7.00;;;;;;;;;;5056906;28;20414;-81
2023/01/11 01:48:07;;;;;;;9.52;6.88;;;;;;;;;;5065884;28;20455;-81
2023/01/11 01:50:40;;;;;;;10.50;7.45;;;9.80;99.90;;;;;;5090947;28;20410;-81
2023/01/11 01:53:12;;;;;;;9.18;6.90;;;;;;;;;;5093743;28;20835;-80
2023/01/11 01:55:40;;;;;;;8.82;7.03;;;;;;;;;;5093396;28;20501;-81
2023/01/11 01:58:09;;;;;;;8.27;6.50;;;;;;;;;;5077135;28;20555;-81
2023/01/11 02:00:37;;;;;;;7.18;5.63;;;;;;;;;;5071974;28;20417;-81
2023/01/11 02:03:04;;;;;;;8.07;5.93;;;;;;;;;;5074335;28;20422;-77
2023/01/11 02:05:30;;;;;;;7.73;5.80;;;;;;;;;;5093076;28;20462;-76
2023/01/11 02:07:57;;;;;;;8.27;5.95;;;;;;;;;;5094058;28;20409;-76
2023/01/11 02:10:26;;;;;;;7.25;5.78;;;;;;;;;;5086533;28;20417;-76
2023/01/11 02:13:05;;;;;;;7.68;6.30;;;;;;;;;;5084154;28;20424;-77
2023/01/11 02:15:31;;;;;;;8.40;6.05;;;;;;;;;;5091157;28;20804;-77
2023/01/11 02:17:57;;;;;;;7.63;6.07;;;;;;;;;;5079798;28;20433;-77
2023/01/11 02:20:38;;;;;;;7.22;5.40;;;;;;;;;;5080590;28;20413;-77
2023/01/11 02:23:17;;;;;;;7.10;5.40;;;;;;;;;;5091271;28;20520;-77
2023/01/11 02:25:43;;;;;;;8.07;5.80;;;;;;;;;;5075181;28;20580;-77
2023/01/11 02:28:13;;;;;;;10.43;6.55;;;;;;;;;;5092426;28;20409;-77
2023/01/11 02:30:55;;;;;;;8.55;5.90;;;;;;;;;;5079819;28;20501;-77
2023/01/11 02:33:38;;;;;;;7.13;5.43;;;;;;;;;;5088983;28;20472;-77
2023/01/11 02:36:08;;;;;;;7.50;5.30;;;;;;;;;;5091145;28;20477;-77
2023/01/11 02:38:50;;;;;;;7.68;5.43;;;;;;;;;;5090773;28;20778;-77
2023/01/11 02:41:21;;;;;;;7.25;5.05;;;;;;;;;;5091825;28;20516;-80
2023/01/11 02:47:00;;;;;;;6.18;4.78;;;10.30;99.90;;;;;;5074921;28;20466;-80
2023/01/11 02:49:32;;;;;;;10.52;4.72;;;;;;;;;;5091781;28;20402;-80
2023/01/11 02:52:24;;;;;;;7.18;4.82;;;;;;;;;;5091909;28;20982;-80
2023/01/11 02:54:54;;;;;;;6.93;4.50;;;;;;;;;;5091176;28;20923;-80
2023/01/11 02:57:22;;;;;;;6.20;4.40;;;;;;;;;;5091938;28;20442;-80
2023/01/11 02:59:49;;;;;;;6.93;4.30;;;;;;;;;;5075404;28;20413;-80
2023/01/11 03:02:18;;;;;;;5.82;4.07;;;;;;;;;;5075709;28;20400;-80
2023/01/11 03:04:44;;;;;;;5.95;4.20;;;;;;;;;;5075869;28;20428;-80
2023/01/11 03:07:13;;;;;;;6.57;4.10;;;;;;;;;;5059147;28;20489;-80
2023/01/11 03:09:39;;;;;;;6.18;4.30;;;;;;;;;;5073987;28;20492;-80
2023/01/11 03:14:58;;;;;;;5.90;3.70;;;;;;;;;;5091352;28;20516;-79
2023/01/11 03:17:42;;;;;;;4.50;3.03;;;10.90;99.90;;;;;;5074755;28;20431;-80
2023/01/11 03:20:21;;;;;;;4.63;3.40;;;10.80;99.90;;;;;;5072201;28;20518;-79
2023/01/11 03:22:50;;;;;;;4.72;3.50;;;;;;;;;;5072221;28;20403;-79
2023/01/11 03:25:16;;;;;;;5.43;3.60;;;;;;;;;;5082929;28;20890;-79
2023/01/11 03:27:50;;;;;;;4.72;3.42;;;10.60;99.90;;;;;;5088902;28;20418;-80
2023/01/11 03:30:34;;;;;;;4.60;3.05;;;;;;;;;;5071719;28;20412;-80
2023/01/11 03:33:03;;;;;;;4.55;3.00;;;;;;;;;;5072762;28;20407;-79
2023/01/11 03:36:07;;;;;;;4.90;3.38;;;10.80;99.90;;;;;;5075156;28;20451;-79
2023/01/11 03:38:39;;;;;;;6.10;3.70;;;10.90;99.90;;;;;;5080340;28;20433;-80
2023/01/11 03:41:12;;;;;;;5.25;3.50;;;;;;;;;;5090949;28;20453;-80
2023/01/11 03:43:42;;;;;;;6.00;3.97;;;10.60;99.90;;;;;;5082130;28;20424;-80
2023/01/11 03:46:08;;;;;;;7.75;4.72;;;;;;;;;;5077451;28;20484;-80
2023/01/11 03:48:54;;;;;;;9.87;4.90;;;10.90;99.90;;;;;;5090065;28;20401;-79
2023/01/11 03:51:27;;;;;;;11.38;5.50;;;10.70;99.90;;;;;;5074103;28;20414;-80
2023/01/11 03:53:57;;;;;;;13.20;5.80;;;;;;;;;;5085467;28;20434;-80
2023/01/11 03:56:27;;;;;;;12.75;5.40;;;;;;;;;;5090695;28;20489;-80
2023/01/11 03:58:53;;;;;;;11.18;5.85;;;;;;;;;;5073587;28;20765;-79
2023/01/11 04:01:19;;;;;;;14.53;6.50;;;;;;;;;;5075263;28;20452;-80
2023/01/11 04:03:45;;;;;;;15.15;6.68;;;;;;;;;;5091561;28;20394;-80
2023/01/11 04:06:11;;;;;;;16.73;7.30;;;;;;;;;;5075290;28;20398;-80
2023/01/11 04:08:38;;;;;;;17.83;7.53;;;;;;;;;;5108369;28;20435;-79
2023/01/11 04:11:04;;;;;;;37.42;11.13;;;;;;;;;;5081142;28;20432;-79
2023/01/11 04:13:31;;;;;;;17.23;7.57;;;;;;;;;;5074182;28;20455;-80
2023/01/11 04:15:57;;;;;;;20.88;7.38;;;;;;;;;;5091171;28;20897;-79
2023/01/11 04:18:23;;;;;;;19.20;7.82;;;;;;;;;;5070686;28;20819;-79
2023/01/11 04:20:49;;;;;;;19.00;8.20;;;;;;;;;;5071212;28;20396;-80
2023/01/11 04:23:15;;;;;;;21.95;8.15;;;;;;;;;;5083780;28;20462;-80
2023/01/11 04:25:41;;;;;;;18.70;7.93;;;;;;;;;;5091037;28;20453;-80
2023/01/11 04:28:07;;;;;;;23.40;7.78;;;;;;;;;;5083815;28;20984;-79
2023/01/11 04:30:34;;;;;;;21.00;7.38;;;;;;;;;;5090465;28;20805;-79
2023/01/11 04:33:00;;;;;;;24.23;6.90;;;;;;;;;;5086765;28;20552;-79
2023/01/11 04:35:27;;;;;;;25.52;6.90;;;;;;;;;;5065108;28;20427;-80
2023/01/11 04:37:56;;;;;;;29.08;6.57;;;;;;;;;;5062215;28;20476;-79
2023/01/11 04:40:23;;;;;;;25.02;6.20;;;10.90;99.90;;;;;;5072811;28;20495;-79
2023/01/11 04:42:49;;;;;;;24.35;6.45;;;;;;;;;;5061298;28;20873;-80
2023/01/11 04:45:16;;;;;;;26.92;5.93;;;;;;;;;;5037421;28;20404;-80
2023/01/11 04:47:42;;;;;;;22.58;5.45;;;;;;;;;;5048120;28;20422;-80
2023/01/11 04:50:08;;;;;;;24.27;4.77;;;;;;;;;;5050047;28;20420;-79
2023/01/11 04:52:34;;;;;;;26.52;5.43;;;;;;;;;;5089484;28;20912;-80
2023/01/11 04:55:00;;;;;;;25.37;5.43;;;;;;;;;;5077424;28;20424;-79
2023/01/11 04:57:26;;;;;;;23.48;5.20;;;;;;;;;;5076893;28;20455;-79
2023/01/11 04:59:53;;;;;;;27.08;4.80;;;;;;;;;;5084502;28;20414;-79
2023/01/11 05:02:19;;;;;;;26.63;4.90;;;;;;;;;;5061167;28;20521;-79
2023/01/11 05:04:45;;;;;;;21.10;4.97;;;;;;;;;;5093407;28;20451;-79
2023/01/11 05:07:11;;;;;;;25.80;5.90;;;;;;;;;;5094297;28;20924;-78
2023/01/11 05:09:37;;;;;;;26.80;5.20;;;;;;;;;;5069329;28;20508;-80
2023/01/11 05:12:03;;;;;;;25.05;5.00;;;;;;;;;;5085183;28;20476;-79
2023/01/11 05:14:29;;;;;;;26.13;5.35;;;;;;;;;;5059985;28;20432;-79
2023/01/11 05:16:55;;;;;;;27.88;5.78;;;;;;;;;;5083980;28;20448;-80
2023/01/11 05:19:21;;;;;;;27.13;5.70;;;;;;;;;;5057284;28;20418;-79
2023/01/11 05:21:47;;;;;;;24.98;4.80;;;;;;;;;;5057299;28;20399;-80
2023/01/11 05:24:14;;;;;;;28.77;4.85;;;;;;;;;;5082404;28;20431;-79
2023/01/11 05:26:42;;;;;;;26.67;4.57;;;;;;;;;;5088772;28;20406;-80
2023/01/11 05:29:12;;;;;;;21.15;4.75;;;;;;;;;;5093219;28;20416;-80
2023/01/11 05:31:39;;;;;;;21.02;4.38;;;;;;;;;;5077047;28;20964;-79
2023/01/11 05:34:05;;;;;;;22.10;4.28;;;;;;;;;;5093621;28;20762;-80
2023/01/11 05:36:32;;;;;;;22.80;3.97;;;;;;;;;;5092246;28;20458;-80
2023/01/11 05:38:58;;;;;;;20.38;3.95;;;;;;;;;;5085445;28;20421;-80
2023/01/11 05:41:25;;;;;;;23.23;4.40;;;;;;;;;;5069958;28;20422;-80
2023/01/11 05:46:38;;;;;;;22.85;4.03;;;;;;;;;;5089117;28;20897;-79
2023/01/11 05:49:04;;;;;;;20.20;4.43;;;;;;;;;;5093414;28;20463;-79
2023/01/11 05:51:31;;;;;;;24.83;4.50;;;10.90;99.90;;;;;;5092530;28;20420;-79
2023/01/11 05:54:01;;;;;;;24.80;4.38;;;;;;;;;;5092852;28;20456;-79
2023/01/11 05:56:27;;;;;;;25.48;4.32;;;;;;;;;;5092464;28;20413;-79
2023/01/11 05:58:53;;;;;;;22.03;4.80;;;;;;;;;;5092206;28;20476;-79
2023/01/11 06:01:21;;;;;;;24.27;4.70;;;10.80;99.90;;;;;;5092731;28;20409;-79
2023/01/11 06:03:47;;;;;;;31.30;5.88;;;;;;;;;;5086565;28;20454;-79
2023/01/11 06:06:14;;;;;;;23.25;3.90;;;10.80;99.90;;;;;;5086558;28;20410;-79
2023/01/11 06:08:40;;;;;;;26.15;4.68;;;;;;;;;;5067924;28;20419;-79
2023/01/11 06:11:06;;;;;;;28.63;4.88;;;;;;;;;;5066199;28;20450;-79
2023/01/11 06:13:32;;;;;;;29.92;4.88;;;;;;;;;;5053323;28;20469;-79
2023/01/11 06:16:05;;;;;;;29.52;5.18;;;;;;;;;;5081189;28;20421;-77
2023/01/11 06:18:33;;;;;;;26.25;5.35;;;;;;;;;;5092957;28;20418;-79
2023/01/11 06:21:00;;;;;;;25.83;4.80;;;;;;;;;;5089265;28;20418;-79
2023/01/11 06:23:27;;;;;;;24.52;5.07;;;;;;;;;;5056753;28;20427;-78
2023/01/11 06:25:53;;;;;;;27.13;4.93;;;;;;;;;;5062009;28;20453;-79
2023/01/11 06:28:19;;;;;;;27.92;5.13;;;;;;;;;;5074480;28;20418;-79
2023/01/11 06:30:52;;;;;;;32.97;5.13;;;;;;;;;;5073431;28;20955;-78
2023/01/11 06:33:18;;;;;;;24.20;4.68;;;;;;;;;;5074939;28;20470;-78
2023/01/11 06:35:44;;;;;;;24.48;4.45;;;;;;;;;;5093112;28;20402;-78
2023/01/11 06:38:11;;;;;;;22.10;4.43;;;;;;;;;;5075788;28;20899;-78
2023/01/11 06:40:39;;;;;;;24.73;4.87;;;10.20;99.90;;;;;;5092788;28;20436;-78
2023/01/11 06:43:05;;;;;;;26.90;5.20;;;;;;;;;;5085524;28;20408;-78
2023/01/11 06:45:31;;;;;;;21.42;4.47;;;;;;;;;;5071259;28;20494;-78
2023/01/11 06:47:57;;;;;;;22.23;5.68;;;;;;;;;;5073381;28;20428;-80
2023/01/11 06:50:24;;;;;;;20.80;3.80;;;;;;;;;;5070612;28;20501;-79
2023/01/11 06:52:53;;;;;;;18.77;4.30;;;;;;;;;;5075954;28;20417;-79
2023/01/11 06:55:20;;;;;;;21.98;4.45;;;;;;;;;;5074539;28;20426;-80
2023/01/11 06:57:46;;;;;;;21.52;3.50;;;;;;;;;;5074803;28;20418;-79
2023/01/11 07:00:12;;;;;;;20.83;3.50;;;;;;;;;;5086846;28;20445;-79
2023/01/11 07:02:38;;;;;;;18.83;3.40;;;;;;;;;;5067781;28;20456;-78
2023/01/11 07:05:05;;;;;;;23.85;4.22;;;;;;;;;;5061006;28;20411;-79
2023/01/11 07:07:31;;;;;;;21.73;3.65;;;;;;;;;;5072645;28;20415;-79
2023/01/11 07:09:59;;;;;;;24.73;4.07;;;;;;;;;;5074569;28;20449;-78
2023/01/11 07:12:25;;;;;;;22.93;4.43;;;;;;;;;;5088698;28;20571;-79
2023/01/11 07:14:51;;;;;;;16.85;3.58;;;;;;;;;;5078851;28;20422;-79
2023/01/11 07:17:17;;;;;;;20.85;4.28;;;;;;;;;;5092216;28;20425;-79
2023/01/11 07:19:43;;;;;;;25.50;4.03;;;;;;;;;;5081351;28;20479;-79
2023/01/11 07:22:09;;;;;;;22.80;4.00;;;;;;;;;;5054475;28;20403;-79
2023/01/11 07:24:35;;;;;;;19.83;4.88;;;;;;;;;;5061252;28;20503;-79
2023/01/11 07:27:02;;;;;;;21.15;4.43;;;;;;;;;;5087279;28;20509;-80
2023/01/11 07:29:28;;;;;;;27.98;4.70;;;;;;;;;;5075160;28;20731;-79
2023/01/11 07:31:54;;;;;;;18.80;3.85;;;;;;;;;;5091375;28;20406;-80
2023/01/11 07:34:20;;;;;;;23.17;4.22;;;;;;;;;;5091591;28;20418;-80
2023/01/11 07:36:46;;;;;;;21.00;4.80;;;;;;;;;;5086798;28;20450;-80
2023/01/11 07:39:12;;;;;;;20.70;4.47;;;;;;;;;;5070668;28;20425;-79
2023/01/11 07:44:23;;;;;;;19.50;3.35;;;;;;;;;;5066104;28;20407;-80
2023/01/11 07:46:49;;;;;;;18.25;3.75;;;;;;;;;;5087486;28;20401;-79
2023/01/11 07:49:15;;;;;;;14.75;3.80;;;;;;;;;;5068752;28;20974;-79
2023/01/11 07:51:41;;;;;;;22.52;4.30;;;;;;;;;;5068831;28;20469;-79
2023/01/11 07:54:07;;;;;;;20.88;3.83;;;;;;;;;;5072016;28;20422;-79
2023/01/11 07:56:34;;;;;;;16.58;3.72;;;;;;;;;;5067011;28;20822;-78
2023/01/11 07:59:00;;;;;;;22.63;3.80;;;;;;;;;;5073675;28;20422;-78
2023/01/11 08:01:26;;;;;;;20.85;3.95;;;;;;;;;;5071854;28;20421;-78
2023/01/11 08:03:52;;;;;;;17.70;3.58;;;;;;;;;;5069137;28;20762;-80
2023/01/11 08:06:18;;;;;;;16.55;3.25;;;;;;;;;;5070008;28;20425;-80
2023/01/11 08:08:44;;;;;;;20.30;3.47;;;;;;;;;;5089475;28;20849;-80
2023/01/11 08:16:40;;;;;;;14.18;3.22;;;;;;;;;;5075229;28;20409;-80
2023/01/11 08:19:06;;;;;;;13.18;3.08;;;;;;;;;;5074478;28;20397;-80
2023/01/11 08:21:32;;;;;;;16.45;3.50;;;;;;;;;;5073356;28;20423;-80
2023/01/11 08:23:58;;;;;;;13.00;2.90;;;;;;;;;;5091057;28;20421;-80
2023/01/11 08:26:25;;;;;;;12.75;2.83;;;;;;;;;;5091095;28;20405;-80
2023/01/11 08:28:52;;;;;;;14.73;2.55;;;;;;;;;;5089777;28;20817;-80
2023/01/11 08:31:18;;;;;;;14.73;2.70;;;;;;;;;;5066234;28;20509;-80
2023/01/11 08:33:44;;;;;;;13.23;3.00;;;;;;;;;;5075838;28;20438;-80
2023/01/11 08:36:11;;;;;;;14.85;2.60;;;;;;;;;;5053811;28;20435;-80
2023/01/11 08:38:37;;;;;;;11.32;2.38;;;;;;;;;;5085174;28;20425;-80
2023/01/11 08:41:09;;;;;;;10.30;2.33;;;;;;;;;;5071482;28;20514;-81
2023/01/11 08:43:36;;;;;;;13.85;2.70;;;;;;;;;;5095715;28;20413;-82
2023/01/11 08:46:02;;;;;;;7.95;2.15;;;;;;;;;;5093855;28;20494;-82
2023/01/11 08:48:28;;;;;;;12.60;2.20;;;;;;;;;;5089624;28;20471;-82
2023/01/11 08:50:54;;;;;;;11.32;2.60;;;;;;;;;;5076016;28;20402;-81
2023/01/11 08:53:20;;;;;;;13.48;2.42;;;;;;;;;;5065638;28;20937;-81
2023/01/11 08:55:50;;;;;;;11.13;2.57;;;;;;;;;;5073588;28;20431;-82
2023/01/11 08:58:16;;;;;;;12.17;2.63;;;;;;;;;;5084115;28;20433;-81
2023/01/11 09:00:42;;;;;;;10.15;2.40;;;;;;;;;;5082875;28;20422;-82
2023/01/11 09:03:10;;;;;;;13.75;2.60;;;;;;;;;;5077781;28;20410;-81
2023/01/11 09:05:37;;;;;;;13.70;2.50;;;;;;;;;;5075024;28;20430;-81
2023/01/11 09:08:03;;;;;;;11.03;2.60;;;;;;;;;;5057134;28;20417;-81
2023/01/11 09:10:30;;;;;;;15.27;2.70;;;;;;;;;;5068020;28;20418;-81
2023/01/11 09:12:56;;;;;;;11.20;3.00;;;;;;;;;;5062719;28;20421;-81
2023/01/11 09:15:23;;;;;;;11.87;2.47;;;;;;;;;;5073432;28;20420;-82
2023/01/11 09:17:49;;;;;;;11.90;3.10;;;9.20;99.90;;;;;;5079001;28;20422;-80
2023/01/11 09:20:16;;;;;;;13.43;2.78;;;;;;;;;;5089829;28;20424;-81
2023/01/11 09:22:46;;;;;;;13.77;2.65;;;;;;;;;;5073231;28;20438;-81
2023/01/11 09:25:12;;;;;;;13.23;2.63;;;;;;;;;;5057095;28;20416;-81
2023/01/11 09:27:42;;;;;;;13.38;2.40;;;;;;;;;;5083987;28;20415;-82
2023/01/11 09:30:09;;;;;;;16.42;2.30;;;;;;;;;;5079945;28;20399;-81
2023/01/11 09:32:35;;;;;;;13.95;2.72;;;;;;;;;;5083897;28;20414;-81
2023/01/11 09:35:02;;;;;;;13.13;2.28;;;;;;;;;;5075466;28;20416;-81
2023/01/11 09:37:28;;;;;;;12.23;2.70;;;;;;;;;;5092630;28;20426;-81
2023/01/11 09:39:56;;;;;;;12.90;3.10;;;;;;;;;;5069714;28;20420;-81
2023/01/11 09:42:38;;;;;;;12.45;2.50;;;;;;;;;;5087971;28;20446;-81
2023/01/11 09:45:27;;;;;;;14.88;2.35;;;9.20;99.90;;;;;;5086247;28;20413;-81
2023/01/11 09:48:10;;;;;;;13.30;2.42;;;;;;;;;;5078565;28;20406;-81
2023/01/11 09:50:40;;;;;;;11.95;2.85;;;9.00;99.90;;;;;;5087710;28;20424;-82
2023/01/11 09:53:18;;;;;;;12.63;2.53;;;9.60;99.90;;;;;;5095852;28;20909;-82
2023/01/11 09:55:46;;;;;;;13.10;2.65;;;10.00;99.90;;;;;;5088859;28;20427;-82
2023/01/11 09:58:13;;;;;;;11.90;2.50;;;;;;;;;;5091719;28;20432;-79
2023/01/11 10:01:02;;;;;;;12.23;2.10;;;;;;;;;;5091452;28;20501;-79
2023/01/11 10:03:37;;;;;;;13.83;2.50;;;;;;;;;;5082255;28;20414;-79
2023/01/11 10:06:12;;;;;;;11.32;2.60;;;;;;;;;;5068424;28;20424;-79
2023/01/11 10:08:56;;;;;;;15.25;2.80;;;10.30;99.90;;;;;;5090110;28;20436;-78
2023/01/11 10:11:26;;;;;;;11.57;2.63;;;;;;;;;;5074861;28;20430;-79
2023/01/11 10:13:52;;;;;;;11.90;2.67;;;;;;;;;;5085155;28;20447;-79
2023/01/11 10:16:31;;;;;;;11.23;2.40;;;;;;;;;;5063412;28;20816;-79
2023/01/11 10:19:00;;;;;;;12.17;2.40;;;;;;;;;;5085289;28;20850;-79
2023/01/11 10:21:44;;;;;;;12.95;2.58;;;10.10;99.90;;;;;;5068760;28;20458;-78
2023/01/11 10:24:20;;;;;;;12.90;2.58;;;;;;;;;;5093063;28;20402;-80
2023/01/11 10:26:48;;;;;;;12.40;2.65;;;;;;;;;;5092326;28;20398;-79
2023/01/11 10:29:37;;;;;;;13.82;2.60;;;;;;;;;;5058620;28;20404;-79
2023/01/11 10:43:24;;;;;;;17.13;3.40;;;10.50;99.90;;;;;;5075511;28;20559;-80
2023/01/11 10:45:55;;;;;;;14.93;3.38;;;;;;;;;;5081436;28;20823;-79
2023/01/11 10:48:36;;;;;;;19.50;3.55;;;;;;;;;;5091111;28;20459;-80
2023/01/11 10:51:11;;;;;;;16.83;3.13;;;;;;;;;;5085537;28;20413;-80
2023/01/11 10:53:49;;;;;;;16.85;4.00;;;10.30;99.90;;;;;;5066981;28;20419;-80
2023/01/11 10:56:39;;;;;;;18.05;3.28;;;10.30;99.90;;;;;;5111387;27;20438;-80
2023/01/11 10:59:20;;;;;;;20.67;4.10;;;;;;;;;;5086184;28;20453;-79
2023/01/11 11:02:05;;;;;;;15.23;3.60;;;10.30;99.90;;;;;;5088865;28;20447;-80
2023/01/11 11:04:46;;;;;;;16.63;3.30;;;;;;;;;;5083181;28;20467;-80
2023/01/11 11:07:21;;;;;;;21.45;4.03;;;;;;;;;;5074650;28;20442;-80
2023/01/11 11:10:06;;;;;;;19.48;3.80;;;;;;;;;;5092885;28;20444;-80
2023/01/11 11:12:35;;;;;;;13.45;3.38;;;;;;;;;;5091144;28;20729;-80
2023/01/11 11:15:10;;;;;;;17.00;3.47;;;;;;;;;;5069506;28;20407;-79
2023/01/11 11:17:38;;;;;;;19.48;3.42;;;;;;;;;;5084821;28;20422;-81
2023/01/11 11:20:18;;;;;;;17.83;4.25;;;;;;;;;;5087453;28;20889;-80
2023/01/11 11:22:44;;;;;;;15.05;3.88;;;;;;;;;;5088695;28;20939;-80
2023/01/11 11:25:14;;;;;;;14.30;3.30;;;;;;;;;;5055041;28;20486;-79
2023/01/11 11:27:42;;;;;;;22.25;3.88;;;;;;;;;;5085896;28;20479;-80
2023/01/11 11:30:13;;;;;;;14.73;3.28;;;10.10;99.90;;;;;;5068207;28;20423;-80
2023/01/11 11:32:45;;;;;;;17.77;3.55;;;10.10;99.90;;;;;;5068284;28;20414;-80
2023/01/11 11:35:38;;;;;;;16.55;3.72;;;10.20;99.90;;;;;;5087374;28;20422;-80
2023/01/11 11:38:05;;;;;;;18.73;3.57;;;;;;;;;;5071325;28;20468;-80
2023/01/11 11:40:35;;;;;;;17.92;3.25;;;;;;;;;;5067833;28;20407;-80
2023/01/11 11:43:16;;;;;;;15.95;3.35;;;;;;;;;;5079229;28;20921;-80
2023/01/11 11:45:56;;;;;;;15.40;3.60;;;;;;;;;;5082394;28;20409;-80
2023/01/11 11:48:23;;;;;;;15.07;3.58;;;10.40;99.90;;;;;;5088965;28;20994;-80
2023/01/11 11:50:52;;;;;;;17.48;3.70;;;10.40;99.90;;;;;;5090876;28;20413;-79
2023/01/11 11:53:41;;;;;;;16.90;3.50;;;;;;;;;;5073260;28;20467;-80
2023/01/11 11:56:23;;;;;;;17.33;3.53;;;;;;;;;;5088518;28;20491;-80
2023/01/11 11:58:49;;;;;;;18.15;3.75;;;;;;;;;;5076631;28;20421;-80
2023/01/11 12:01:34;;;;;;;20.35;3.55;;;;;;;;;;5064774;28;20530;-80
2023/01/11 12:04:02;;;;;;;17.35;3.50;;;;;;;;;;5071098;28;20416;-80
2023/01/11 12:06:29;;;;;;;21.30;4.03;;;;;;;;;;5093077;28;20763;-81
2023/01/11 12:08:57;;;;;;;13.93;3.15;;;;;;;;;;5062770;28;20423;-80
2023/01/11 12:11:28;;;;;;;17.98;3.90;;;;;;;;;;5088484;28;20438;-81
2023/01/11 12:14:14;;;;;;;19.83;3.75;;;11.00;99.90;;;;;;5090788;28;20454;-80
2023/01/11 12:16:42;;;;;;;18.33;3.95;;;11.00;99.90;;;;;;5069608;28;20432;-80
2023/01/11 12:19:28;;;;;;;16.15;3.33;;;;;;;;;;5087112;28;20920;-81
2023/01/11 12:22:10;;;;;;;20.10;3.60;;;;;;;;;;5066084;28;20422;-81
2023/01/11 12:24:36;;;;;;;16.60;3.72;;;;;;;;;;5089416;28;20426;-81
2023/01/11 12:27:04;;;;;;;19.63;3.72;;;;;;;;;;5072929;28;20422;-80
2023/01/11 12:29:36;;;;;;;18.90;4.10;;;;;;;;;;5073422;28;20479;-81
2023/01/11 12:32:27;;;;;;;17.70;3.70;;;10.60;99.90;;;;;;5067767;28;20429;-81
2023/01/11 12:35:28;;;;;;;17.38;4.43;;;10.10;99.90;;;;;;5081289;28;20429;-81
2023/01/11 12:37:54;;;;;;;17.83;3.83;;;;;;;;;;5078303;28;20431;-81
2023/01/11 12:40:30;;;;;;;21.50;3.83;;;;;;;;;;5080017;28;20874;-80
2023/01/11 12:43:42;;;;;;;19.35;3.90;;;10.60;99.90;;;;;;5086164;28;20416;-81
2023/01/11 12:46:20;;;;;;;20.55;4.40;;;;;;;;;;5090799;28;20485;-81
2023/01/11 12:48:56;;;;;;;20.92;4.03;;;;;;;;;;5084999;28;20424;-81
2023/01/11 12:51:37;;;;;;;17.97;3.63;;;;;;;;;;5067809;28;20453;-81
2023/01/11 12:54:03;;;;;;;17.88;3.72;;;;;;;;;;5064498;28;20427;-81
2023/01/11 12:56:41;;;;;;;18.27;4.03;;;;;;;;;;5085856;28;20489;-80
2023/01/11 12:59:26;;;;;;;20.23;4.22;;;;;;;;;;5086606;28;20479;-81
2023/01/11 13:02:10;;;;;;;22.45;4.47;;;;;;;;;;5085579;28;20409;-81
2023/01/11 13:04:50;;;;;;;20.23;4.32;;;10.50;99.90;;;;;;5082215;28;20426;-80
2023/01/11 13:07:35;;;;;;;22.30;4.50;;;;;;;;;;5077220;28;20769;-81
2023/01/11 13:10:11;;;;;;;17.63;4.05;;;;;;;;;;5083551;28;20516;-80
2023/01/11 13:12:37;;;;;;;21.33;3.97;;;;;;;;;;5082805;28;20414;-81
2023/01/11 13:15:03;;;;;;;22.52;4.05;;;;;;;;;;5089282;28;20437;-80
2023/01/11 13:17:49;;;;;;;21.85;4.38;;;10.20;99.90;;;;;;5072631;28;20421;-80
2023/01/11 13:20:40;;;;;;;22.23;4.57;;;10.40;99.90;;;;;;5094677;28;20770;-81
2023/01/11 13:23:31;;;;;;;20.27;3.95;;;10.50;99.90;;;;;;5069682;28;20502;-80
2023/01/11 13:26:00;;;;;;;20.35;4.10;;;;;;;;;;5063953;28;20955;-80
2023/01/11 13:28:33;;;;;;;23.48;4.18;;;;;;;;;;5087955;28;20419;-79
2023/01/11 13:31:01;;;;;;;20.77;4.07;;;;;;;;;;5084357;28;20414;-79
2023/01/11 13:33:32;;;;;;;22.33;4.00;;;10.50;99.90;;;;;;5078723;28;20418;-80
2023/01/11 13:36:04;;;;;;;22.90;4.22;;;9.90;99.90;;;;;;5075060;28;20417;-79
2023/01/11 13:38:33;;;;;;;21.08;4.13;;;;;;;;;;5090869;28;20426;-80
2023/01/11 13:41:15;;;;;;;23.80;5.05;;;10.30;99.90;;;;;;5067339;28;20419;-80
2023/01/11 13:43:44;;;;;;;22.20;4.57;;;;;;;;;;5081488;28;21486;-79
2023/01/11 13:46:29;;;;;;;21.73;4.05;;;;;;;;;;5092204;28;20901;-79
2023/01/11 13:48:57;;;;;;;20.30;4.20;;;;;;;;;;5081585;28;20460;-79
2023/01/11 13:51:42;;;;;;;21.25;4.05;;;;;;;;;;5067328;28;20453;-79
2023/01/11 13:54:12;;;;;;;26.15;4.68;;;;;;;;;;5074429;28;20421;-79
2023/01/11 13:56:43;;;;;;;23.02;4.32;;;10.20;99.90;;;;;;5090099;28;20413;-79
2023/01/11 13:59:39;;;;;;;22.40;4.00;;;;;;;;;;5087001;28;20509;-79
2023/01/11 14:02:05;;;;;;;17.92;4.40;;;;;;;;;;5069410;28;20417;-79
2023/01/11 14:04:53;;;;;;;23.48;4.72;;;;;;;;;;5081053;28;20732;-79
2023/01/11 14:07:39;;;;;;;21.73;4.45;;;;;;;;;;5074333;28;20417;-80
2023/01/11 14:10:08;;;;;;;21.23;4.07;;;;;;;;;;5091230;28;20467;-80
2023/01/11 14:12:42;;;;;;;20.48;3.72;;;;;;;;;;5081091;28;20443;-80
2023/01/11 14:15:20;;;;;;;20.70;3.90;;;;;;;;;;5087973;28;20425;-79
2023/01/11 14:17:46;;;;;;;26.35;4.32;;;;;;;;;;5089539;28;20870;-80
2023/01/11 14:20:18;;;;;;;18.77;4.10;;;;;;;;;;5071517;28;20438;-81
2023/01/11 14:22:44;;;;;;;20.83;4.22;;;;;;;;;;5089892;28;20458;-79
2023/01/11 14:25:14;;;;;;;20.85;4.03;;;;;;;;;;5069390;28;20419;-79
2023/01/11 14:27:52;;;;;;;18.60;4.30;;;;;;;;;;5087277;28;20475;-79
2023/01/11 14:30:23;;;;;;;18.60;4.10;;;;;;;;;;5074351;28;20437;-79
2023/01/11 14:33:10;;;;;;;20.92;4.35;;;9.60;99.90;;;;;;5073431;28;20817;-79
2023/01/11 14:35:54;;;;;;;20.50;4.43;;;;;;;;;;5091319;28;20494;-79
2023/01/11 14:38:27;;;;;;;21.27;4.18;;;;;;;;;;5081552;28;20534;-78
2023/01/11 14:40:53;;;;;;;23.02;4.80;;;;;;;;;;5068300;28;20456;-78
2023/01/11 14:43:28;;;;;;;22.02;5.10;;;;;;;;;;5082357;28;20414;-77
2023/01/11 14:46:13;;;;;;;20.30;3.87;;;;;;;;;;5091457;28;20433;-78
2023/01/11 14:48:51;;;;;;;24.47;4.23;;;;;;;;;;5072726;28;20513;-78
2023/01/11 14:51:29;;;;;;;21.48;4.38;;;;;;;;;;5092376;28;20429;-77
2023/01/11 14:54:18;;;;;;;20.77;3.63;;;;;;;;;;5090006;28;20536;-77
2023/01/11 14:56:44;;;;;;;20.75;4.65;;;;;;;;;;5064397;28;20920;-77
2023/01/11 14:59:29;;;;;;;24.55;4.30;;;9.70;99.90;;;;;;5060709;28;20430;-77
2023/01/11 15:02:04;;;;;;;21.73;4.25;;;;;;;;;;5061828;28;20415;-78
2023/01/11 15:04:35;;;;;;;22.55;4.75;;;;;;;;;;5065303;28;20417;-77
2023/01/11 15:07:20;;;;;;;27.37;4.67;;;;;;;;;;5093725;28;20465;-77
2023/01/11 15:09:47;;;;;;;21.67;4.25;;;;;;;;;;5089338;28;20460;-77
2023/01/11 15:12:21;;;;;;;26.90;5.10;;;;;;;;;;5083427;28;20453;-77